createdAt,value
2023-01-29T00:02:37.955Z,97.46
2023-01-29T00:05:42.626Z,99.46
2023-01-29T00:08:47.802Z,99.22
2023-01-29T00:11:52.055Z,100.00
2023-01-29T00:14:56.842Z,94.51
2023-01-29T00:18:01.344Z,92.96
2023-01-29T00:21:10.826Z,95.73
2023-01-29T00:24:15.698Z,100.00
2023-01-29T00:27:20.352Z,94.24
2023-01-29T00:30:37.490Z,86.15
2023-01-29T00:33:53.153Z,90.13
2023-01-29T00:37:09.241Z,94.12
2023-01-29T00:40:14.311Z,97.15
2023-01-29T00:43:43.913Z,95.40
2023-01-29T00:46:55.046Z,97.04
2023-01-29T00:50:00.097Z,97.86
2023-01-29T00:53:05.432Z,98.77
2023-01-29T00:56:15.453Z,97.09
2023-01-29T00:59:30.569Z,96.71
2023-01-29T01:02:53.567Z,98.07
2023-01-29T01:06:05.951Z,92.46
2023-01-29T01:09:31.660Z,100.00
2023-01-29T01:12:47.310Z,100.00
2023-01-29T01:15:51.815Z,99.23
2023-01-29T01:18:57.184Z,100.00
2023-01-29T01:22:01.810Z,100.00
2023-01-29T01:25:07.014Z,97.98
2023-01-29T01:28:11.650Z,100.00
2023-01-29T01:31:16.760Z,100.00
2023-01-29T01:34:22.637Z,100.00
2023-01-29T01:37:27.031Z,100.00
2023-01-29T01:40:46.296Z,100.00
2023-01-29T01:44:13.685Z,100.00
2023-01-29T01:47:38.986Z,100.00
2023-01-29T01:51:03.970Z,100.00
2023-01-29T01:54:16.360Z,100.00
2023-01-29T01:57:26.826Z,100.00
2023-01-29T02:00:31.713Z,100.00
2023-01-29T02:04:04.133Z,100.00
2023-01-29T02:07:37.595Z,100.00
2023-01-29T02:10:46.393Z,100.00
2023-01-29T02:13:55.778Z,100.00
2023-01-29T02:17:03.113Z,100.00
2023-01-29T02:20:26.895Z,99.63
2023-01-29T02:24:04.261Z,100.00
2023-01-29T02:31:11.895Z,100.00
2023-01-29T02:34:23.290Z,100.00
2023-01-29T02:37:38.606Z,100.00
2023-01-29T02:40:53.369Z,100.00
2023-01-29T02:44:18.069Z,100.00
2023-01-29T02:47:43.239Z,100.00
2023-01-29T02:51:21.074Z,100.00
2023-01-29T02:54:34.303Z,100.00
2023-01-29T02:57:42.892Z,100.00
2023-01-29T03:00:48.879Z,100.00
2023-01-29T03:04:08.335Z,100.00
2023-01-29T03:07:41.250Z,100.00
2023-01-29T03:11:02.212Z,98.97
2023-01-29T03:14:56.943Z,100.00
2023-01-29T03:18:12.417Z,100.00
2023-01-29T03:21:53.815Z,100.00
2023-01-29T03:25:22.270Z,100.00
2023-01-29T03:28:49.283Z,97.16
2023-01-29T03:32:07.025Z,98.38
2023-01-29T03:35:14.961Z,98.00
2023-01-29T03:38:21.719Z,100.00
2023-01-29T03:41:39.799Z,100.00
2023-01-29T03:44:55.159Z,97.11
2023-01-29T03:48:12.658Z,99.11
2023-01-29T03:51:46.756Z,96.79
2023-01-29T03:55:18.778Z,98.54
2023-01-29T03:58:39.805Z,97.70
2023-01-29T04:02:06.034Z,98.70
2023-01-29T04:05:25.681Z,97.08
2023-01-29T04:09:17.808Z,92.10
2023-01-29T04:12:46.555Z,93.16
2023-01-29T04:15:58.908Z,88.72
2023-01-29T04:19:35.790Z,86.94
2023-01-29T04:22:51.769Z,90.56
2023-01-29T04:26:29.598Z,90.58
2023-01-29T04:29:57.162Z,86.82
2023-01-29T04:33:43.556Z,82.77
2023-01-29T04:37:30.616Z,85.09
2023-01-29T04:40:54.719Z,85.62
2023-01-29T04:44:19.394Z,85.42
2023-01-29T04:47:41.744Z,84.88
2023-01-29T04:50:59.969Z,88.21
2023-01-29T04:54:16.769Z,84.55
2023-01-29T04:57:29.166Z,82.25
2023-01-29T05:00:43.504Z,80.83
2023-01-29T05:03:55.646Z,76.49
2023-01-29T05:07:09.550Z,80.04
2023-01-29T05:10:21.416Z,81.08
2023-01-29T05:13:28.872Z,77.93
2023-01-29T05:16:42.393Z,75.91
2023-01-29T05:19:48.020Z,78.88
2023-01-29T05:22:53.051Z,78.24
2023-01-29T05:26:07.694Z,79.69
2023-01-29T05:29:18.567Z,78.15
2023-01-29T05:32:32.815Z,75.81
2023-01-29T05:35:37.652Z,73.43
2023-01-29T05:38:53.699Z,70.63
2023-01-29T05:42:09.404Z,68.49
2023-01-29T05:45:26.953Z,69.10
2023-01-29T05:48:33.834Z,67.62
2023-01-29T05:51:54.149Z,67.80
2023-01-29T05:55:03.364Z,72.49
2023-01-29T05:58:08.471Z,71.06
2023-01-29T06:01:16.425Z,69.32
2023-01-29T06:04:31.206Z,69.91
2023-01-29T06:07:46.061Z,69.87
2023-01-29T06:10:50.911Z,70.56
2023-01-29T06:13:56.032Z,66.75
2023-01-29T06:17:00.770Z,65.89
2023-01-29T06:20:06.319Z,65.81
2023-01-29T06:23:11.024Z,68.59
2023-01-29T06:26:17.157Z,69.43
2023-01-29T06:29:23.041Z,65.57
2023-01-29T06:32:28.675Z,68.74
2023-01-29T06:35:38.408Z,71.94
2023-01-29T06:38:48.632Z,73.17
2023-01-29T06:42:05.840Z,70.13
2023-01-29T06:45:11.179Z,69.49
2023-01-29T06:48:16.538Z,69.11
2023-01-29T06:51:23.662Z,67.61
2023-01-29T06:54:29.873Z,64.35
2023-01-29T06:57:36.562Z,64.66
2023-01-29T07:00:43.129Z,63.58
2023-01-29T07:03:51.648Z,64.03
2023-01-29T07:07:02.142Z,67.54
2023-01-29T07:10:09.574Z,64.79
2023-01-29T07:13:22.750Z,66.34
2023-01-29T07:16:27.343Z,66.22
2023-01-29T07:19:31.569Z,69.14
2023-01-29T07:22:37.313Z,68.19
2023-01-29T07:25:54.145Z,67.03
2023-01-29T07:28:58.790Z,63.98
2023-01-29T07:32:04.034Z,60.82
2023-01-29T07:35:09.106Z,60.22
2023-01-29T07:38:13.980Z,60.58
2023-01-29T07:41:28.519Z,61.77
2023-01-29T07:44:41.383Z,60.58
2023-01-29T07:47:58.696Z,59.31
2023-01-29T07:51:03.720Z,61.00
2023-01-29T07:54:09.290Z,59.32
2023-01-29T07:57:15.565Z,59.13
2023-01-29T08:00:22.452Z,60.59
2023-01-29T08:03:33.002Z,62.08
2023-01-29T08:06:46.468Z,63.85
2023-01-29T08:09:56.292Z,61.70
2023-01-29T08:13:02.805Z,63.49
2023-01-29T08:16:09.042Z,63.22
2023-01-29T08:19:14.303Z,68.83
2023-01-29T08:22:31.573Z,69.46
2023-01-29T08:25:37.711Z,65.63
2023-01-29T08:28:54.448Z,65.68
2023-01-29T08:31:59.368Z,66.45
2023-01-29T08:35:03.770Z,67.34
2023-01-29T08:38:08.331Z,68.00
2023-01-29T08:41:13.554Z,66.26
2023-01-29T08:44:30.361Z,66.29
2023-01-29T08:47:39.485Z,67.45
2023-01-29T08:50:46.444Z,62.96
2023-01-29T08:53:51.685Z,62.59
2023-01-29T08:56:56.393Z,63.24
2023-01-29T09:00:01.945Z,62.13
2023-01-29T09:03:12.785Z,59.39
2023-01-29T09:06:19.205Z,57.07
2023-01-29T09:09:24.256Z,59.94
2023-01-29T09:12:30.500Z,59.78
2023-01-29T09:15:38.231Z,60.48
2023-01-29T09:18:47.633Z,59.21
2023-01-29T09:21:52.425Z,59.83
2023-01-29T09:25:07.550Z,61.92
2023-01-29T09:28:13.181Z,60.85
2023-01-29T09:31:19.299Z,59.48
2023-01-29T09:34:25.140Z,61.09
2023-01-29T09:37:37.554Z,62.14
2023-01-29T09:41:15.033Z,61.61
2023-01-29T09:44:47.216Z,61.61
2023-01-29T09:48:04.177Z,63.51
2023-01-29T09:51:24.644Z,62.88
2023-01-29T09:54:49.604Z,64.15
2023-01-29T09:58:13.020Z,62.46
2023-01-29T10:01:37.885Z,64.54
2023-01-29T10:09:16.952Z,70.02
2023-01-29T10:12:49.924Z,65.79
2023-01-29T10:16:19.168Z,71.70
2023-01-29T10:19:35.443Z,69.20
2023-01-29T10:22:58.162Z,68.66
2023-01-29T10:26:05.274Z,67.11
2023-01-29T10:29:18.941Z,72.85
2023-01-29T10:32:27.188Z,71.40
2023-01-29T10:39:31.693Z,72.46
2023-01-29T10:42:57.693Z,73.92
2023-01-29T10:46:14.118Z,73.89
2023-01-29T10:49:38.006Z,74.44
2023-01-29T10:53:09.756Z,74.85
2023-01-29T10:56:48.567Z,79.85
2023-01-29T11:00:17.280Z,86.52
2023-01-29T11:03:29.187Z,85.58
2023-01-29T11:06:36.205Z,82.84
2023-01-29T11:09:53.621Z,81.96
2023-01-29T11:13:01.048Z,79.04
2023-01-29T11:16:06.868Z,78.89
2023-01-29T11:19:18.614Z,77.56
2023-01-29T11:22:30.511Z,80.19
2023-01-29T11:25:35.349Z,81.97
2023-01-29T11:28:47.780Z,81.61
2023-01-29T11:32:02.029Z,79.23
2023-01-29T11:35:15.870Z,80.71
2023-01-29T11:38:24.244Z,89.33
2023-01-29T11:41:30.735Z,92.56
2023-01-29T11:44:42.905Z,95.18
2023-01-29T11:47:53.647Z,96.63
2023-01-29T11:51:01.193Z,92.36
2023-01-29T11:54:20.410Z,92.97
2023-01-29T11:57:29.763Z,93.02
2023-01-29T12:00:42.364Z,92.07
2023-01-29T12:03:54.708Z,97.05
2023-01-29T12:07:18.693Z,100.00
2023-01-29T12:10:41.653Z,100.00
2023-01-29T12:13:55.440Z,98.62
2023-01-29T12:17:12.814Z,98.88
2023-01-29T12:20:32.315Z,98.08
2023-01-29T12:24:12.562Z,100.00
2023-01-29T12:27:36.926Z,100.00
2023-01-29T12:31:08.284Z,100.00
2023-01-29T12:34:25.637Z,100.00
2023-01-29T12:37:32.799Z,99.98
2023-01-29T12:40:49.039Z,97.48
2023-01-29T12:44:16.781Z,98.21
2023-01-29T12:47:42.011Z,93.87
2023-01-29T12:50:55.753Z,96.15
2023-01-29T12:54:22.158Z,100.00
2023-01-29T12:57:56.422Z,100.00
2023-01-29T13:01:43.112Z,100.00
2023-01-29T13:08:52.817Z,100.00
2023-01-29T13:12:17.842Z,100.00
2023-01-29T13:15:39.129Z,100.00
2023-01-29T13:23:41.136Z,100.00
2023-01-29T13:26:48.753Z,98.70
2023-01-29T13:29:55.241Z,100.00
2023-01-29T13:33:10.260Z,99.30
2023-01-29T13:36:24.465Z,98.01
2023-01-29T13:39:41.224Z,96.58
2023-01-29T13:43:00.234Z,92.73
2023-01-29T13:46:13.955Z,93.71
2023-01-29T13:49:44.190Z,91.47
2023-01-29T13:52:55.322Z,88.35
2023-01-29T13:56:29.902Z,89.02
2023-01-29T13:59:55.826Z,83.55
2023-01-29T14:03:12.357Z,84.93
2023-01-29T14:06:52.564Z,79.26
2023-01-29T14:10:16.153Z,79.66
2023-01-29T14:13:21.992Z,81.68
2023-01-29T14:16:36.379Z,82.73
2023-01-29T14:19:49.636Z,82.78
2023-01-29T14:22:58.307Z,83.15
2023-01-29T14:26:20.257Z,76.97
2023-01-29T14:29:34.678Z,77.47
2023-01-29T14:32:48.074Z,74.58
2023-01-29T14:35:57.803Z,83.92
2023-01-29T14:39:22.102Z,87.91
2023-01-29T14:42:36.926Z,86.34
2023-01-29T14:45:49.169Z,86.26
2023-01-29T14:48:58.730Z,84.62
2023-01-29T14:52:04.616Z,83.39
2023-01-29T14:55:31.384Z,87.98
2023-01-29T14:58:56.306Z,88.92
2023-01-29T15:06:07.045Z,84.23
2023-01-29T15:09:22.073Z,80.78
2023-01-29T15:12:32.147Z,81.16
2023-01-29T15:15:52.798Z,79.86
2023-01-29T15:19:20.101Z,78.64
2023-01-29T15:22:30.808Z,80.44
2023-01-29T15:25:51.173Z,79.36
2023-01-29T15:29:07.703Z,79.17
2023-01-29T15:32:39.954Z,77.76
2023-01-29T15:36:06.698Z,78.44
2023-01-29T15:39:14.246Z,76.95
2023-01-29T15:42:26.230Z,77.23
2023-01-29T15:45:36.093Z,78.95
2023-01-29T15:48:52.608Z,79.77
2023-01-29T15:52:10.193Z,81.43
2023-01-29T15:55:17.419Z,82.97
2023-01-29T15:58:28.848Z,83.09
2023-01-29T16:01:33.433Z,84.34
2023-01-29T16:04:38.683Z,84.31
2023-01-29T16:07:45.263Z,85.88
2023-01-29T16:11:05.847Z,83.80
2023-01-29T16:14:18.003Z,83.50
2023-01-29T16:17:35.964Z,85.17
2023-01-29T16:20:46.277Z,86.86
2023-01-29T16:24:01.686Z,84.75
2023-01-29T16:27:15.748Z,87.62
2023-01-29T16:30:28.312Z,84.56
2023-01-29T16:33:39.414Z,85.28
2023-01-29T16:36:52.844Z,84.27
2023-01-29T16:40:00.680Z,89.45
2023-01-29T16:43:28.434Z,94.71
2023-01-29T16:46:39.892Z,86.94
2023-01-29T16:49:56.567Z,89.61
2023-01-29T16:53:08.267Z,89.72
2023-01-29T16:56:30.113Z,92.04
2023-01-29T16:59:43.975Z,91.93
2023-01-29T17:02:54.982Z,93.42
2023-01-29T17:06:11.664Z,89.90
2023-01-29T17:09:31.843Z,93.19
2023-01-29T17:12:39.595Z,90.28
2023-01-29T17:15:48.393Z,90.20
2023-01-29T17:18:54.061Z,95.34
2023-01-29T17:22:00.437Z,93.03
2023-01-29T17:25:07.186Z,90.65
2023-01-29T17:28:22.474Z,87.94
2023-01-29T17:31:28.161Z,85.62
2023-01-29T17:34:32.862Z,90.72
2023-01-29T17:37:37.980Z,92.07
2023-01-29T17:40:58.679Z,96.64
2023-01-29T17:44:08.537Z,96.82
2023-01-29T17:47:15.468Z,91.40
2023-01-29T17:50:28.350Z,90.53
2023-01-29T17:53:47.751Z,94.20
2023-01-29T17:57:03.077Z,93.49
2023-01-29T18:00:30.132Z,89.01
2023-01-29T18:03:44.947Z,92.88
2023-01-29T18:13:26.302Z,94.21
2023-01-29T18:16:41.248Z,93.47
2023-01-29T18:19:49.365Z,88.26
2023-01-29T18:22:55.871Z,88.34
2023-01-29T18:26:06.524Z,87.80
2023-01-29T18:29:11.255Z,89.30
2023-01-29T18:32:22.495Z,88.50
2023-01-29T18:35:32.389Z,86.81
2023-01-29T18:38:41.498Z,86.29
2023-01-29T18:41:46.623Z,87.08
2023-01-29T18:44:51.447Z,87.21
2023-01-29T18:47:58.129Z,83.83
2023-01-29T18:51:12.861Z,83.57
2023-01-29T18:54:18.836Z,81.23
2023-01-29T18:58:27.239Z,82.48
2023-01-29T19:01:02.366Z,80.25
2023-01-29T19:04:16.025Z,81.55
2023-01-29T19:07:21.408Z,83.46
2023-01-29T19:10:36.954Z,80.88
2023-01-29T19:13:46.513Z,83.91
2023-01-29T19:16:51.543Z,80.00
2023-01-29T19:20:10.146Z,79.41
2023-01-29T19:23:16.104Z,79.12
2023-01-29T19:26:20.778Z,79.92
2023-01-29T19:29:25.479Z,79.76
2023-01-29T19:32:30.556Z,78.31
2023-01-29T19:35:35.011Z,78.39
2023-01-29T19:38:40.317Z,75.90
2023-01-29T19:41:49.601Z,75.38
2023-01-29T19:45:05.939Z,74.74
2023-01-29T19:48:10.291Z,74.98
2023-01-29T19:51:19.230Z,72.52
2023-01-29T19:54:23.925Z,72.38
2023-01-29T19:57:31.029Z,74.63
2023-01-29T20:00:46.117Z,76.30
2023-01-29T20:03:51.852Z,74.19
2023-01-29T20:06:56.204Z,74.75
2023-01-29T20:10:00.335Z,72.66
2023-01-29T20:13:06.532Z,75.71
2023-01-29T20:16:11.469Z,74.32
2023-01-29T20:19:16.319Z,73.44
2023-01-29T20:22:21.273Z,72.00
2023-01-29T20:25:25.827Z,73.45
2023-01-29T20:28:30.441Z,71.78
2023-01-29T20:31:39.894Z,72.02
2023-01-29T20:34:50.013Z,75.27
2023-01-29T20:37:54.568Z,77.70
2023-01-29T20:41:08.413Z,77.71
2023-01-29T20:44:22.623Z,77.98
2023-01-29T20:47:29.597Z,79.67
2023-01-29T20:50:35.066Z,76.95
2023-01-29T20:53:41.539Z,75.75
2023-01-29T20:56:56.397Z,76.43
2023-01-29T21:00:01.467Z,75.99
2023-01-29T21:03:15.816Z,77.17
2023-01-29T21:06:30.857Z,79.10
2023-01-29T21:09:35.277Z,80.89
2023-01-29T21:12:42.320Z,80.18
2023-01-29T21:15:56.974Z,81.89
2023-01-29T21:19:02.155Z,80.27
2023-01-29T21:22:06.587Z,78.76
2023-01-29T21:25:11.643Z,77.14
2023-01-29T21:28:21.641Z,79.63
2023-01-29T21:31:31.298Z,77.54
2023-01-29T21:34:41.852Z,76.61
2023-01-29T21:37:51.303Z,78.97
2023-01-29T21:41:09.138Z,77.98
2023-01-29T21:44:14.119Z,78.31
2023-01-29T21:47:19.126Z,79.66
2023-01-29T21:50:23.590Z,81.52
2023-01-29T21:53:27.683Z,80.85
2023-01-29T21:56:32.629Z,81.02
2023-01-29T21:59:37.101Z,80.51
2023-01-29T22:02:42.602Z,82.87
2023-01-29T22:05:46.993Z,81.92
2023-01-29T22:08:51.677Z,81.40
2023-01-29T22:11:56.598Z,78.22
2023-01-29T22:15:01.716Z,77.75
2023-01-29T22:18:16.851Z,76.57
2023-01-29T22:21:22.049Z,76.92
2023-01-29T22:24:36.528Z,77.33
2023-01-29T22:27:41.043Z,77.01
2023-01-29T22:30:50.908Z,75.10
2023-01-29T22:33:57.898Z,74.49
2023-01-29T22:37:08.272Z,74.00
2023-01-29T22:40:13.589Z,75.61
2023-01-29T22:43:18.192Z,75.35
2023-01-29T22:46:32.372Z,76.13
2023-01-29T22:49:41.984Z,74.01
2023-01-29T22:52:56.358Z,72.41
2023-01-29T22:56:01.083Z,72.92
2023-01-29T22:59:05.588Z,71.04
2023-01-29T23:02:11.753Z,72.08
2023-01-29T23:05:17.638Z,71.02
2023-01-29T23:08:22.440Z,70.88
2023-01-29T23:11:27.488Z,69.86
2023-01-29T23:14:32.345Z,70.69
2023-01-29T23:17:37.370Z,69.66
2023-01-29T23:20:47.060Z,68.53
2023-01-29T23:23:52.884Z,71.40
2023-01-29T23:27:16.651Z,70.96
2023-01-29T23:30:21.036Z,70.75
2023-01-29T23:33:35.962Z,71.42
2023-01-29T23:36:40.661Z,71.99
2023-01-29T23:39:45.618Z,72.32
2023-01-29T23:42:50.492Z,70.13
2023-01-29T23:45:59.709Z,72.01
2023-01-29T23:49:05.174Z,71.34
2023-01-29T23:52:15.322Z,71.11
2023-01-29T23:55:20.229Z,68.53
2023-01-29T23:58:26.001Z,65.86
